sensor_id;sensor_type;location;lat;lon;timestamp;temperature;humidity
16744;DHT22;71724;-33.900;151.182;2023-07-29T00:00:17;18.40;64.50
16744;DHT22;71724;-33.900;151.182;2023-07-29T00:02:46;18.50;64.10
16744;DHT22;71724;-33.900;151.182;2023-07-29T00:05:14;18.70;63.80
16744;DHT22;71724;-33.900;151.182;2023-07-29T00:07:41;18.80;63.30
16744;DHT22;71724;-33.900;151.182;2023-07-29T00:10:09;19.00;62.80
16744;DHT22;71724;-33.900;151.182;2023-07-29T00:12:36;19.10;62.60
16744;DHT22;71724;-33.900;151.182;2023-07-29T00:15:05;19.20;62.50
16744;DHT22;71724;-33.900;151.182;2023-07-29T00:17:32;19.20;62.10
16744;DHT22;71724;-33.900;151.182;2023-07-29T00:20:00;19.50;61.20
16744;DHT22;71724;-33.900;151.182;2023-07-29T00:22:27;19.60;60.60
16744;DHT22;71724;-33.900;151.182;2023-07-29T00:24:55;19.70;60.40
16744;DHT22;71724;-33.900;151.182;2023-07-29T00:27:24;19.80;59.90
16744;DHT22;71724;-33.900;151.182;2023-07-29T00:29:52;19.90;59.70
16744;DHT22;71724;-33.900;151.182;2023-07-29T00:32:19;20.00;60.20
16744;DHT22;71724;-33.900;151.182;2023-07-29T00:34:47;20.20;59.20
16744;DHT22;71724;-33.900;151.182;2023-07-29T00:37:14;20.50;58.80
16744;DHT22;71724;-33.900;151.182;2023-07-29T00:39:41;20.70;57.60
16744;DHT22;71724;-33.900;151.182;2023-07-29T00:42:09;20.90;57.30
16744;DHT22;71724;-33.900;151.182;2023-07-29T00:44:36;21.10;57.00
16744;DHT22;71724;-33.900;151.182;2023-07-29T00:47:05;21.30;56.50
16744;DHT22;71724;-33.900;151.182;2023-07-29T00:49:33;21.50;54.40
16744;DHT22;71724;-33.900;151.182;2023-07-29T00:52:00;21.80;53.70
16744;DHT22;71724;-33.900;151.182;2023-07-29T00:54:28;22.00;52.90
16744;DHT22;71724;-33.900;151.182;2023-07-29T00:56:55;22.00;52.50
16744;DHT22;71724;-33.900;151.182;2023-07-29T00:59:23;22.00;52.40
16744;DHT22;71724;-33.900;151.182;2023-07-29T01:01:50;22.00;51.40
16744;DHT22;71724;-33.900;151.182;2023-07-29T01:04:18;22.00;51.40
16744;DHT22;71724;-33.900;151.182;2023-07-29T01:07:07;22.00;50.70
16744;DHT22;71724;-33.900;151.182;2023-07-29T01:12:18;22.00;51.20
16744;DHT22;71724;-33.900;151.182;2023-07-29T01:17:43;22.30;50.80
16744;DHT22;71724;-33.900;151.182;2023-07-29T01:20:19;22.50;50.30
16744;DHT22;71724;-33.900;151.182;2023-07-29T01:22:47;22.70;50.30
16744;DHT22;71724;-33.900;151.182;2023-07-29T01:25:16;22.80;49.10
16744;DHT22;71724;-33.900;151.182;2023-07-29T01:27:52;22.90;49.30
16744;DHT22;71724;-33.900;151.182;2023-07-29T01:30:21;23.00;48.60
16744;DHT22;71724;-33.900;151.182;2023-07-29T01:35:33;23.30;47.90
16744;DHT22;71724;-33.900;151.182;2023-07-29T01:38:18;23.30;47.80
16744;DHT22;71724;-33.900;151.182;2023-07-29T01:40:46;23.30;47.80
16744;DHT22;71724;-33.900;151.182;2023-07-29T01:43:14;23.30;48.30
16744;DHT22;71724;-33.900;151.182;2023-07-29T01:45:42;23.30;47.80
16744;DHT22;71724;-33.900;151.182;2023-07-29T01:48:09;23.20;48.30
16744;DHT22;71724;-33.900;151.182;2023-07-29T01:50:36;23.20;48.60
16744;DHT22;71724;-33.900;151.182;2023-07-29T01:53:04;23.10;49.30
16744;DHT22;71724;-33.900;151.182;2023-07-29T01:55:31;22.90;49.70
16744;DHT22;71724;-33.900;151.182;2023-07-29T01:57:59;22.90;48.70
16744;DHT22;71724;-33.900;151.182;2023-07-29T02:00:26;22.80;49.20
16744;DHT22;71724;-33.900;151.182;2023-07-29T02:02:53;22.80;50.10
16744;DHT22;71724;-33.900;151.182;2023-07-29T02:05:21;22.70;50.70
16744;DHT22;71724;-33.900;151.182;2023-07-29T02:07:48;22.70;49.60
16744;DHT22;71724;-33.900;151.182;2023-07-29T02:10:15;22.80;49.00
16744;DHT22;71724;-33.900;151.182;2023-07-29T02:12:43;22.80;49.60
16744;DHT22;71724;-33.900;151.182;2023-07-29T02:15:10;22.70;49.60
16744;DHT22;71724;-33.900;151.182;2023-07-29T02:17:37;22.80;48.90
16744;DHT22;71724;-33.900;151.182;2023-07-29T02:20:05;22.80;48.20
16744;DHT22;71724;-33.900;151.182;2023-07-29T02:22:33;22.80;48.60
16744;DHT22;71724;-33.900;151.182;2023-07-29T02:25:00;22.80;48.60
16744;DHT22;71724;-33.900;151.182;2023-07-29T02:27:29;22.80;47.90
16744;DHT22;71724;-33.900;151.182;2023-07-29T02:29:56;22.80;47.80
16744;DHT22;71724;-33.900;151.182;2023-07-29T02:32:24;22.80;47.10
16744;DHT22;71724;-33.900;151.182;2023-07-29T02:34:51;22.80;46.80
16744;DHT22;71724;-33.900;151.182;2023-07-29T02:37:18;22.90;46.50
16744;DHT22;71724;-33.900;151.182;2023-07-29T02:39:47;23.00;47.00
16744;DHT22;71724;-33.900;151.182;2023-07-29T02:42:14;22.90;46.60
16744;DHT22;71724;-33.900;151.182;2023-07-29T02:44:42;22.90;47.30
16744;DHT22;71724;-33.900;151.182;2023-07-29T02:47:09;22.80;48.70
16744;DHT22;71724;-33.900;151.182;2023-07-29T02:49:36;22.90;48.90
16744;DHT22;71724;-33.900;151.182;2023-07-29T02:52:04;23.00;48.30
16744;DHT22;71724;-33.900;151.182;2023-07-29T02:54:32;23.10;48.30
16744;DHT22;71724;-33.900;151.182;2023-07-29T02:57:00;23.10;48.50
16744;DHT22;71724;-33.900;151.182;2023-07-29T02:59:27;23.10;48.90
16744;DHT22;71724;-33.900;151.182;2023-07-29T03:01:55;23.10;49.10
16744;DHT22;71724;-33.900;151.182;2023-07-29T03:04:22;23.10;49.50
16744;DHT22;71724;-33.900;151.182;2023-07-29T03:06:50;23.20;48.30
16744;DHT22;71724;-33.900;151.182;2023-07-29T03:09:17;23.20;47.70
16744;DHT22;71724;-33.900;151.182;2023-07-29T03:11:44;23.10;48.60
16744;DHT22;71724;-33.900;151.182;2023-07-29T03:14:12;23.00;49.00
16744;DHT22;71724;-33.900;151.182;2023-07-29T03:16:39;22.90;49.20
16744;DHT22;71724;-33.900;151.182;2023-07-29T03:19:07;22.80;49.40
16744;DHT22;71724;-33.900;151.182;2023-07-29T03:21:34;22.80;48.80
16744;DHT22;71724;-33.900;151.182;2023-07-29T03:24:02;22.80;49.70
16744;DHT22;71724;-33.900;151.182;2023-07-29T03:26:29;22.70;49.90
16744;DHT22;71724;-33.900;151.182;2023-07-29T03:28:56;22.70;50.10
16744;DHT22;71724;-33.900;151.182;2023-07-29T03:31:24;22.70;50.30
16744;DHT22;71724;-33.900;151.182;2023-07-29T03:33:51;22.60;50.40
16744;DHT22;71724;-33.900;151.182;2023-07-29T03:36:18;22.60;50.60
16744;DHT22;71724;-33.900;151.182;2023-07-29T03:38:46;22.50;50.90
16744;DHT22;71724;-33.900;151.182;2023-07-29T03:41:13;22.40;51.00
16744;DHT22;71724;-33.900;151.182;2023-07-29T03:43:41;22.30;51.20
16744;DHT22;71724;-33.900;151.182;2023-07-29T03:46:08;22.30;51.40
16744;DHT22;71724;-33.900;151.182;2023-07-29T03:48:36;22.20;51.40
16744;DHT22;71724;-33.900;151.182;2023-07-29T03:51:03;22.10;51.50
16744;DHT22;71724;-33.900;151.182;2023-07-29T03:53:31;22.10;51.60
16744;DHT22;71724;-33.900;151.182;2023-07-29T03:55:58;22.00;51.60
16744;DHT22;71724;-33.900;151.182;2023-07-29T03:58:26;22.00;51.80
16744;DHT22;71724;-33.900;151.182;2023-07-29T04:00:53;21.90;52.10
16744;DHT22;71724;-33.900;151.182;2023-07-29T04:03:21;22.00;51.60
16744;DHT22;71724;-33.900;151.182;2023-07-29T04:05:48;22.00;51.70
16744;DHT22;71724;-33.900;151.182;2023-07-29T04:08:16;22.00;51.70
16744;DHT22;71724;-33.900;151.182;2023-07-29T04:10:43;22.10;51.50
16744;DHT22;71724;-33.900;151.182;2023-07-29T04:13:13;22.10;51.70
16744;DHT22;71724;-33.900;151.182;2023-07-29T04:15:41;22.10;51.80
16744;DHT22;71724;-33.900;151.182;2023-07-29T04:18:08;22.10;51.80
16744;DHT22;71724;-33.900;151.182;2023-07-29T04:20:36;22.10;51.90
16744;DHT22;71724;-33.900;151.182;2023-07-29T04:23:03;22.20;51.10
16744;DHT22;71724;-33.900;151.182;2023-07-29T04:25:30;22.20;51.20
16744;DHT22;71724;-33.900;151.182;2023-07-29T04:27:58;22.20;51.10
16744;DHT22;71724;-33.900;151.182;2023-07-29T04:30:25;22.20;50.90
16744;DHT22;71724;-33.900;151.182;2023-07-29T04:32:52;22.20;51.10
16744;DHT22;71724;-33.900;151.182;2023-07-29T04:35:20;22.20;51.40
16744;DHT22;71724;-33.900;151.182;2023-07-29T04:37:48;22.20;51.40
16744;DHT22;71724;-33.900;151.182;2023-07-29T04:40:15;22.20;51.70
16744;DHT22;71724;-33.900;151.182;2023-07-29T04:42:44;22.20;52.00
16744;DHT22;71724;-33.900;151.182;2023-07-29T04:45:16;22.20;52.20
16744;DHT22;71724;-33.900;151.182;2023-07-29T04:47:44;22.20;52.10
16744;DHT22;71724;-33.900;151.182;2023-07-29T04:50:11;22.10;52.10
16744;DHT22;71724;-33.900;151.182;2023-07-29T04:52:38;22.00;52.10
16744;DHT22;71724;-33.900;151.182;2023-07-29T04:55:06;22.00;52.40
16744;DHT22;71724;-33.900;151.182;2023-07-29T04:57:33;22.00;52.70
16744;DHT22;71724;-33.900;151.182;2023-07-29T05:00:02;21.90;52.80
16744;DHT22;71724;-33.900;151.182;2023-07-29T05:02:29;21.90;52.50
16744;DHT22;71724;-33.900;151.182;2023-07-29T05:04:56;21.90;52.60
16744;DHT22;71724;-33.900;151.182;2023-07-29T05:07:24;21.80;52.70
16744;DHT22;71724;-33.900;151.182;2023-07-29T05:09:51;21.80;53.00
16744;DHT22;71724;-33.900;151.182;2023-07-29T05:12:19;21.80;53.30
16744;DHT22;71724;-33.900;151.182;2023-07-29T05:14:49;21.70;53.50
16744;DHT22;71724;-33.900;151.182;2023-07-29T05:17:16;21.70;53.60
16744;DHT22;71724;-33.900;151.182;2023-07-29T05:19:47;21.60;53.70
16744;DHT22;71724;-33.900;151.182;2023-07-29T05:22:15;21.60;54.00
16744;DHT22;71724;-33.900;151.182;2023-07-29T05:24:42;21.50;54.20
16744;DHT22;71724;-33.900;151.182;2023-07-29T05:27:09;21.50;54.30
16744;DHT22;71724;-33.900;151.182;2023-07-29T05:29:37;21.50;54.40
16744;DHT22;71724;-33.900;151.182;2023-07-29T05:32:04;21.40;54.60
16744;DHT22;71724;-33.900;151.182;2023-07-29T05:34:35;21.50;54.80
16744;DHT22;71724;-33.900;151.182;2023-07-29T05:37:06;21.40;54.90
16744;DHT22;71724;-33.900;151.182;2023-07-29T05:39:33;21.40;55.10
16744;DHT22;71724;-33.900;151.182;2023-07-29T05:42:00;21.30;55.20
16744;DHT22;71724;-33.900;151.182;2023-07-29T05:44:30;21.30;55.30
16744;DHT22;71724;-33.900;151.182;2023-07-29T05:46:58;21.30;55.60
16744;DHT22;71724;-33.900;151.182;2023-07-29T05:49:25;21.30;56.00
16744;DHT22;71724;-33.900;151.182;2023-07-29T05:51:54;21.30;55.80
16744;DHT22;71724;-33.900;151.182;2023-07-29T05:54:21;21.30;56.00
16744;DHT22;71724;-33.900;151.182;2023-07-29T05:56:48;21.20;56.20
16744;DHT22;71724;-33.900;151.182;2023-07-29T05:59:16;21.20;56.40
16744;DHT22;71724;-33.900;151.182;2023-07-29T06:01:43;21.10;56.70
16744;DHT22;71724;-33.900;151.182;2023-07-29T06:04:11;21.10;57.10
16744;DHT22;71724;-33.900;151.182;2023-07-29T06:06:38;21.00;57.40
16744;DHT22;71724;-33.900;151.182;2023-07-29T06:09:05;21.00;57.30
16744;DHT22;71724;-33.900;151.182;2023-07-29T06:11:33;20.90;57.10
16744;DHT22;71724;-33.900;151.182;2023-07-29T06:14:00;20.90;57.50
16744;DHT22;71724;-33.900;151.182;2023-07-29T06:16:28;20.80;57.40
16744;DHT22;71724;-33.900;151.182;2023-07-29T06:18:56;20.80;57.80
16744;DHT22;71724;-33.900;151.182;2023-07-29T06:21:24;20.70;58.00
16744;DHT22;71724;-33.900;151.182;2023-07-29T06:23:51;20.60;58.20
16744;DHT22;71724;-33.900;151.182;2023-07-29T06:26:19;20.60;58.40
16744;DHT22;71724;-33.900;151.182;2023-07-29T06:28:46;20.50;58.40
16744;DHT22;71724;-33.900;151.182;2023-07-29T06:31:14;20.40;58.60
16744;DHT22;71724;-33.900;151.182;2023-07-29T06:33:41;20.40;58.80
16744;DHT22;71724;-33.900;151.182;2023-07-29T06:36:09;20.40;59.00
16744;DHT22;71724;-33.900;151.182;2023-07-29T06:38:36;20.40;59.20
16744;DHT22;71724;-33.900;151.182;2023-07-29T06:41:08;20.30;59.40
16744;DHT22;71724;-33.900;151.182;2023-07-29T06:43:36;20.30;59.70
16744;DHT22;71724;-33.900;151.182;2023-07-29T06:46:03;20.30;59.70
16744;DHT22;71724;-33.900;151.182;2023-07-29T06:48:31;20.20;59.70
16744;DHT22;71724;-33.900;151.182;2023-07-29T06:50:58;20.20;59.80
16744;DHT22;71724;-33.900;151.182;2023-07-29T06:53:30;20.20;59.70
16744;DHT22;71724;-33.900;151.182;2023-07-29T06:55:57;20.10;59.70
16744;DHT22;71724;-33.900;151.182;2023-07-29T06:58:25;20.10;59.90
16744;DHT22;71724;-33.900;151.182;2023-07-29T07:00:52;20.00;60.00
16744;DHT22;71724;-33.900;151.182;2023-07-29T07:03:20;20.00;60.20
16744;DHT22;71724;-33.900;151.182;2023-07-29T07:05:47;20.00;60.40
16744;DHT22;71724;-33.900;151.182;2023-07-29T07:08:15;20.00;60.50
16744;DHT22;71724;-33.900;151.182;2023-07-29T07:10:42;19.90;60.70
16744;DHT22;71724;-33.900;151.182;2023-07-29T07:13:09;19.90;60.90
16744;DHT22;71724;-33.900;151.182;2023-07-29T07:15:38;19.80;61.10
16744;DHT22;71724;-33.900;151.182;2023-07-29T07:18:05;19.80;61.30
16744;DHT22;71724;-33.900;151.182;2023-07-29T07:20:32;19.80;61.40
16744;DHT22;71724;-33.900;151.182;2023-07-29T07:23:00;19.80;61.60
16744;DHT22;71724;-33.900;151.182;2023-07-29T07:25:27;19.70;61.80
16744;DHT22;71724;-33.900;151.182;2023-07-29T07:27:55;19.70;61.90
16744;DHT22;71724;-33.900;151.182;2023-07-29T07:30:22;19.70;62.10
16744;DHT22;71724;-33.900;151.182;2023-07-29T07:32:49;19.70;62.10
16744;DHT22;71724;-33.900;151.182;2023-07-29T07:35:17;19.60;62.20
16744;DHT22;71724;-33.900;151.182;2023-07-29T07:37:45;19.60;62.40
16744;DHT22;71724;-33.900;151.182;2023-07-29T07:40:12;19.50;62.60
16744;DHT22;71724;-33.900;151.182;2023-07-29T07:42:40;19.50;62.70
16744;DHT22;71724;-33.900;151.182;2023-07-29T07:45:07;19.50;63.00
16744;DHT22;71724;-33.900;151.182;2023-07-29T07:47:35;19.40;63.10
16744;DHT22;71724;-33.900;151.182;2023-07-29T07:50:03;19.30;63.40
16744;DHT22;71724;-33.900;151.182;2023-07-29T07:52:31;19.30;63.60
16744;DHT22;71724;-33.900;151.182;2023-07-29T07:54:58;19.20;63.80
16744;DHT22;71724;-33.900;151.182;2023-07-29T07:57:25;19.30;63.90
16744;DHT22;71724;-33.900;151.182;2023-07-29T07:59:53;19.20;64.10
16744;DHT22;71724;-33.900;151.182;2023-07-29T08:02:20;19.20;64.30
16744;DHT22;71724;-33.900;151.182;2023-07-29T08:04:48;19.20;64.30
16744;DHT22;71724;-33.900;151.182;2023-07-29T08:07:15;19.10;64.20
16744;DHT22;71724;-33.900;151.182;2023-07-29T08:09:42;19.10;64.50
16744;DHT22;71724;-33.900;151.182;2023-07-29T08:12:10;19.00;64.50
16744;DHT22;71724;-33.900;151.182;2023-07-29T08:14:37;19.00;64.60
16744;DHT22;71724;-33.900;151.182;2023-07-29T08:17:05;19.00;64.70
16744;DHT22;71724;-33.900;151.182;2023-07-29T08:19:35;19.00;64.70
16744;DHT22;71724;-33.900;151.182;2023-07-29T08:22:03;18.90;64.90
16744;DHT22;71724;-33.900;151.182;2023-07-29T08:24:30;18.90;64.90
16744;DHT22;71724;-33.900;151.182;2023-07-29T08:26:58;18.90;64.90
16744;DHT22;71724;-33.900;151.182;2023-07-29T08:29:25;18.80;65.00
16744;DHT22;71724;-33.900;151.182;2023-07-29T08:31:53;18.70;65.40
16744;DHT22;71724;-33.900;151.182;2023-07-29T08:34:21;18.70;65.50
16744;DHT22;71724;-33.900;151.182;2023-07-29T08:36:49;18.70;65.60
16744;DHT22;71724;-33.900;151.182;2023-07-29T08:39:16;18.70;65.70
16744;DHT22;71724;-33.900;151.182;2023-07-29T08:44:27;18.60;65.90
16744;DHT22;71724;-33.900;151.182;2023-07-29T08:46:57;18.60;65.90
16744;DHT22;71724;-33.900;151.182;2023-07-29T08:49:24;18.50;66.20
16744;DHT22;71724;-33.900;151.182;2023-07-29T08:51:54;18.50;66.30
16744;DHT22;71724;-33.900;151.182;2023-07-29T08:54:22;18.50;66.40
16744;DHT22;71724;-33.900;151.182;2023-07-29T08:56:49;18.50;66.40
16744;DHT22;71724;-33.900;151.182;2023-07-29T08:59:17;18.40;66.50
16744;DHT22;71724;-33.900;151.182;2023-07-29T09:01:45;18.40;66.50
16744;DHT22;71724;-33.900;151.182;2023-07-29T09:04:13;18.40;66.60
16744;DHT22;71724;-33.900;151.182;2023-07-29T09:06:43;18.40;66.60
16744;DHT22;71724;-33.900;151.182;2023-07-29T09:09:10;18.30;66.70
16744;DHT22;71724;-33.900;151.182;2023-07-29T09:11:37;18.30;66.90
16744;DHT22;71724;-33.900;151.182;2023-07-29T09:14:05;18.20;66.90
16744;DHT22;71724;-33.900;151.182;2023-07-29T09:16:32;18.20;67.20
16744;DHT22;71724;-33.900;151.182;2023-07-29T09:19:04;18.20;67.30
16744;DHT22;71724;-33.900;151.182;2023-07-29T09:21:33;18.10;67.30
16744;DHT22;71724;-33.900;151.182;2023-07-29T09:24:03;18.00;67.60
16744;DHT22;71724;-33.900;151.182;2023-07-29T09:26:34;17.90;67.80
16744;DHT22;71724;-33.900;151.182;2023-07-29T09:29:02;18.00;67.70
16744;DHT22;71724;-33.900;151.182;2023-07-29T09:31:29;17.90;68.00
16744;DHT22;71724;-33.900;151.182;2023-07-29T09:33:58;17.90;68.10
16744;DHT22;71724;-33.900;151.182;2023-07-29T09:36:26;17.80;68.30
16744;DHT22;71724;-33.900;151.182;2023-07-29T09:38:55;17.80;68.50
16744;DHT22;71724;-33.900;151.182;2023-07-29T09:41:27;17.80;68.40
16744;DHT22;71724;-33.900;151.182;2023-07-29T09:44:02;17.70;68.20
16744;DHT22;71724;-33.900;151.182;2023-07-29T09:46:33;17.70;68.30
16744;DHT22;71724;-33.900;151.182;2023-07-29T09:49:06;17.70;68.20
16744;DHT22;71724;-33.900;151.182;2023-07-29T09:51:42;17.70;68.50
16744;DHT22;71724;-33.900;151.182;2023-07-29T09:54:11;17.70;68.00
16744;DHT22;71724;-33.900;151.182;2023-07-29T09:56:41;17.70;68.10
16744;DHT22;71724;-33.900;151.182;2023-07-29T09:59:33;17.70;68.20
16744;DHT22;71724;-33.900;151.182;2023-07-29T10:02:01;17.60;67.90
16744;DHT22;71724;-33.900;151.182;2023-07-29T10:04:29;17.60;68.20
16744;DHT22;71724;-33.900;151.182;2023-07-29T10:06:58;17.50;68.00
16744;DHT22;71724;-33.900;151.182;2023-07-29T10:09:27;17.40;67.70
16744;DHT22;71724;-33.900;151.182;2023-07-29T10:11:56;17.30;68.30
16744;DHT22;71724;-33.900;151.182;2023-07-29T10:14:24;17.30;68.60
16744;DHT22;71724;-33.900;151.182;2023-07-29T10:16:54;17.30;69.00
16744;DHT22;71724;-33.900;151.182;2023-07-29T10:19:24;17.20;68.90
16744;DHT22;71724;-33.900;151.182;2023-07-29T10:21:52;17.20;68.60
16744;DHT22;71724;-33.900;151.182;2023-07-29T10:24:25;17.20;68.40
16744;DHT22;71724;-33.900;151.182;2023-07-29T10:27:00;17.20;68.60
16744;DHT22;71724;-33.900;151.182;2023-07-29T10:29:39;17.20;68.60
16744;DHT22;71724;-33.900;151.182;2023-07-29T10:32:12;17.10;68.70
16744;DHT22;71724;-33.900;151.182;2023-07-29T10:34:40;17.00;68.90
16744;DHT22;71724;-33.900;151.182;2023-07-29T10:37:09;17.00;69.00
16744;DHT22;71724;-33.900;151.182;2023-07-29T10:39:40;16.90;69.10
16744;DHT22;71724;-33.900;151.182;2023-07-29T10:42:18;16.90;69.40
16744;DHT22;71724;-33.900;151.182;2023-07-29T10:44:50;16.90;69.80
16744;DHT22;71724;-33.900;151.182;2023-07-29T10:47:28;16.90;69.80
16744;DHT22;71724;-33.900;151.182;2023-07-29T10:49:58;16.80;69.70
16744;DHT22;71724;-33.900;151.182;2023-07-29T10:55:04;16.80;70.40
16744;DHT22;71724;-33.900;151.182;2023-07-29T10:57:50;16.80;70.20
16744;DHT22;71724;-33.900;151.182;2023-07-29T11:00:20;16.80;70.00
16744;DHT22;71724;-33.900;151.182;2023-07-29T11:03:08;16.80;69.60
16744;DHT22;71724;-33.900;151.182;2023-07-29T11:05:47;16.80;70.60
16744;DHT22;71724;-33.900;151.182;2023-07-29T11:08:31;16.80;69.90
16744;DHT22;71724;-33.900;151.182;2023-07-29T11:11:04;16.70;69.70
16744;DHT22;71724;-33.900;151.182;2023-07-29T11:13:33;16.70;70.10
16744;DHT22;71724;-33.900;151.182;2023-07-29T11:16:01;16.70;69.90
16744;DHT22;71724;-33.900;151.182;2023-07-29T11:18:33;16.60;70.20
16744;DHT22;71724;-33.900;151.182;2023-07-29T11:21:02;16.60;70.40
16744;DHT22;71724;-33.900;151.182;2023-07-29T11:23:33;16.60;70.80
16744;DHT22;71724;-33.900;151.182;2023-07-29T11:26:02;16.60;71.00
16744;DHT22;71724;-33.900;151.182;2023-07-29T11:28:30;16.60;71.10
16744;DHT22;71724;-33.900;151.182;2023-07-29T11:30:58;16.60;71.00
16744;DHT22;71724;-33.900;151.182;2023-07-29T11:33:26;16.60;70.40
16744;DHT22;71724;-33.900;151.182;2023-07-29T11:35:55;16.60;70.50
16744;DHT22;71724;-33.900;151.182;2023-07-29T11:38:23;16.50;70.60
16744;DHT22;71724;-33.900;151.182;2023-07-29T11:40:58;16.50;70.90
16744;DHT22;71724;-33.900;151.182;2023-07-29T11:43:26;16.50;70.90
16744;DHT22;71724;-33.900;151.182;2023-07-29T11:45:54;16.40;70.90
16744;DHT22;71724;-33.900;151.182;2023-07-29T11:48:33;16.30;70.90
16744;DHT22;71724;-33.900;151.182;2023-07-29T11:51:02;16.30;71.40
16744;DHT22;71724;-33.900;151.182;2023-07-29T11:53:30;16.30;71.70
16744;DHT22;71724;-33.900;151.182;2023-07-29T11:55:58;16.20;72.00
16744;DHT22;71724;-33.900;151.182;2023-07-29T11:58:26;16.20;72.20
16744;DHT22;71724;-33.900;151.182;2023-07-29T12:00:54;16.30;72.10
16744;DHT22;71724;-33.900;151.182;2023-07-29T12:03:21;16.20;72.10
16744;DHT22;71724;-33.900;151.182;2023-07-29T12:05:49;16.20;72.30
16744;DHT22;71724;-33.900;151.182;2023-07-29T12:08:17;16.20;72.40
16744;DHT22;71724;-33.900;151.182;2023-07-29T12:10:44;16.20;72.90
16744;DHT22;71724;-33.900;151.182;2023-07-29T12:13:13;16.20;72.70
16744;DHT22;71724;-33.900;151.182;2023-07-29T12:15:40;16.20;72.30
16744;DHT22;71724;-33.900;151.182;2023-07-29T12:18:08;16.20;72.30
16744;DHT22;71724;-33.900;151.182;2023-07-29T12:20:37;16.10;72.60
16744;DHT22;71724;-33.900;151.182;2023-07-29T12:23:04;16.10;72.80
16744;DHT22;71724;-33.900;151.182;2023-07-29T12:25:34;16.10;72.70
16744;DHT22;71724;-33.900;151.182;2023-07-29T12:28:06;16.00;72.60
16744;DHT22;71724;-33.900;151.182;2023-07-29T12:30:33;16.00;72.80
16744;DHT22;71724;-33.900;151.182;2023-07-29T12:33:01;16.00;73.10
16744;DHT22;71724;-33.900;151.182;2023-07-29T12:35:37;16.00;73.00
16744;DHT22;71724;-33.900;151.182;2023-07-29T12:38:05;16.00;73.20
16744;DHT22;71724;-33.900;151.182;2023-07-29T12:40:37;16.00;73.30
16744;DHT22;71724;-33.900;151.182;2023-07-29T12:43:04;16.00;73.30
16744;DHT22;71724;-33.900;151.182;2023-07-29T12:45:36;15.90;73.40
16744;DHT22;71724;-33.900;151.182;2023-07-29T12:48:06;15.90;73.30
16744;DHT22;71724;-33.900;151.182;2023-07-29T12:50:33;15.90;73.50
16744;DHT22;71724;-33.900;151.182;2023-07-29T12:53:01;15.90;73.20
16744;DHT22;71724;-33.900;151.182;2023-07-29T12:55:28;15.90;73.40
16744;DHT22;71724;-33.900;151.182;2023-07-29T12:57:56;15.80;73.50
16744;DHT22;71724;-33.900;151.182;2023-07-29T13:00:25;15.80;73.80
16744;DHT22;71724;-33.900;151.182;2023-07-29T13:02:52;15.80;73.80
16744;DHT22;71724;-33.900;151.182;2023-07-29T13:05:19;15.80;73.90
16744;DHT22;71724;-33.900;151.182;2023-07-29T13:07:47;15.70;73.90
16744;DHT22;71724;-33.900;151.182;2023-07-29T13:10:15;15.70;74.20
16744;DHT22;71724;-33.900;151.182;2023-07-29T13:12:42;15.80;74.20
16744;DHT22;71724;-33.900;151.182;2023-07-29T13:15:10;15.90;74.40
16744;DHT22;71724;-33.900;151.182;2023-07-29T13:17:37;15.80;74.20
16744;DHT22;71724;-33.900;151.182;2023-07-29T13:20:06;15.80;74.40
16744;DHT22;71724;-33.900;151.182;2023-07-29T13:22:33;15.90;74.50
16744;DHT22;71724;-33.900;151.182;2023-07-29T13:25:01;15.80;74.30
16744;DHT22;71724;-33.900;151.182;2023-07-29T13:27:28;15.80;74.30
16744;DHT22;71724;-33.900;151.182;2023-07-29T13:29:56;15.70;74.60
16744;DHT22;71724;-33.900;151.182;2023-07-29T13:32:23;15.70;74.90
16744;DHT22;71724;-33.900;151.182;2023-07-29T13:34:51;15.70;74.90
16744;DHT22;71724;-33.900;151.182;2023-07-29T13:37:18;15.70;75.00
16744;DHT22;71724;-33.900;151.182;2023-07-29T13:39:45;15.80;75.40
16744;DHT22;71724;-33.900;151.182;2023-07-29T13:42:13;15.80;75.10
16744;DHT22;71724;-33.900;151.182;2023-07-29T13:44:40;15.80;74.60
16744;DHT22;71724;-33.900;151.182;2023-07-29T13:47:07;15.80;74.70
16744;DHT22;71724;-33.900;151.182;2023-07-29T13:49:35;15.80;74.60
16744;DHT22;71724;-33.900;151.182;2023-07-29T13:52:02;15.70;74.50
16744;DHT22;71724;-33.900;151.182;2023-07-29T13:54:29;15.70;75.10
16744;DHT22;71724;-33.900;151.182;2023-07-29T13:56:57;15.70;74.40
16744;DHT22;71724;-33.900;151.182;2023-07-29T13:59:24;15.70;74.40
16744;DHT22;71724;-33.900;151.182;2023-07-29T14:01:52;15.60;74.70
16744;DHT22;71724;-33.900;151.182;2023-07-29T14:04:19;15.60;75.30
16744;DHT22;71724;-33.900;151.182;2023-07-29T14:06:49;15.60;75.10
16744;DHT22;71724;-33.900;151.182;2023-07-29T14:09:16;15.50;74.90
16744;DHT22;71724;-33.900;151.182;2023-07-29T14:11:44;15.50;75.10
16744;DHT22;71724;-33.900;151.182;2023-07-29T14:14:11;15.40;75.10
16744;DHT22;71724;-33.900;151.182;2023-07-29T14:16:38;15.50;75.60
16744;DHT22;71724;-33.900;151.182;2023-07-29T14:19:06;15.50;75.60
16744;DHT22;71724;-33.900;151.182;2023-07-29T14:21:33;15.50;75.40
16744;DHT22;71724;-33.900;151.182;2023-07-29T14:24:00;15.40;75.50
16744;DHT22;71724;-33.900;151.182;2023-07-29T14:26:28;15.50;75.80
16744;DHT22;71724;-33.900;151.182;2023-07-29T14:28:55;15.50;75.30
16744;DHT22;71724;-33.900;151.182;2023-07-29T14:31:23;15.40;75.10
16744;DHT22;71724;-33.900;151.182;2023-07-29T14:33:50;15.40;75.30
16744;DHT22;71724;-33.900;151.182;2023-07-29T14:36:17;15.30;75.70
16744;DHT22;71724;-33.900;151.182;2023-07-29T14:38:45;15.40;75.40
16744;DHT22;71724;-33.900;151.182;2023-07-29T14:41:13;15.30;75.40
16744;DHT22;71724;-33.900;151.182;2023-07-29T14:43:41;15.30;75.70
16744;DHT22;71724;-33.900;151.182;2023-07-29T14:46:08;15.20;75.70
16744;DHT22;71724;-33.900;151.182;2023-07-29T14:48:36;15.30;76.50
16744;DHT22;71724;-33.900;151.182;2023-07-29T14:51:03;15.40;75.80
16744;DHT22;71724;-33.900;151.182;2023-07-29T14:53:30;15.40;75.40
16744;DHT22;71724;-33.900;151.182;2023-07-29T14:55:58;15.30;75.40
16744;DHT22;71724;-33.900;151.182;2023-07-29T14:58:25;15.20;75.70
16744;DHT22;71724;-33.900;151.182;2023-07-29T15:00:53;15.20;75.80
16744;DHT22;71724;-33.900;151.182;2023-07-29T15:03:20;15.20;76.10
16744;DHT22;71724;-33.900;151.182;2023-07-29T15:05:47;15.20;75.90
16744;DHT22;71724;-33.900;151.182;2023-07-29T15:08:16;15.20;75.90